Time;durP1;ratioP1;P1;durP2;ratioP2;P2;SDS_P1;SDS_P2;PMS_P1;PMS_P2;Temp;Humidity;BMP_temperature;BMP_pressure;BME280_temperature;BME280_humidity;BME280_pressure;Samples;Min_cycle;Max_cycle;Signal;HPM_P1;HPM_P2
2022/10/30 00:01:33;;;;;;;3.85;2.33;;;;;;;4.85;81.98;102041.31;1832736;78;21055;-58
2022/10/30 00:04:02;;;;;;;5.30;2.80;;;;;;;4.84;81.92;102035.64;1832638;78;21052;-59
2022/10/30 00:06:31;;;;;;;5.65;2.60;;;;;;;4.81;81.95;102043.45;1832500;77;21255;-58
2022/10/30 00:09:00;;;;;;;6.03;3.15;;;;;;;4.76;81.95;102036.05;1832721;78;21118;-59
2022/10/30 00:11:28;;;;;;;4.83;2.33;;;;;;;4.73;81.90;102037.32;1845917;77;21225;-58
2022/10/30 00:13:57;;;;;;;6.67;2.87;;;;;;;4.68;81.95;102039.02;1863379;77;21097;-58
2022/10/30 00:16:26;;;;;;;9.13;3.83;;;;;;;4.63;82.05;102039.87;1863380;77;21040;-58
2022/10/30 00:18:55;;;;;;;9.78;3.35;;;;;;;4.63;82.04;102035.96;1863234;76;21138;-59
2022/10/30 00:21:23;;;;;;;7.33;3.35;;;;;;;4.63;81.93;102033.80;1863494;77;21008;-58
2022/10/30 00:23:53;;;;;;;9.40;3.30;;;;;;;4.55;81.94;102041.54;1863408;76;21079;-58
2022/10/30 00:26:24;;;;;;;11.03;2.37;;;;;;;4.52;81.96;102039.34;1868310;76;21076;-59
2022/10/30 00:28:56;;;;;;;5.37;3.98;;;;;;;4.47;81.92;102030.20;1872581;77;21039;-59
2022/10/30 00:31:24;;;;;;;9.73;4.95;;;;;;;4.42;81.94;102024.07;1872371;76;21118;-58
2022/10/30 00:33:54;;;;;;;11.15;5.15;;;;;;;4.39;81.94;102016.21;1872452;76;21056;-59
2022/10/30 00:36:24;;;;;;;8.65;3.83;;;;;;;4.42;81.94;102017.55;1872478;77;21040;-59
2022/10/30 00:38:52;;;;;;;9.10;3.67;;;;;;;4.38;81.91;102015.79;1872430;77;21113;-59
2022/10/30 00:41:24;;;;;;;7.28;3.87;;;;;;;4.36;81.88;102009.25;1872387;77;21064;-59
2022/10/30 00:43:53;;;;;;;7.37;3.02;;;;;;;4.33;81.92;102012.27;1872463;76;21118;-59
2022/10/30 00:46:33;;;;;;;6.35;3.30;;;;;;;4.30;82.00;102004.01;1872462;77;21524;-59
2022/10/30 00:49:14;;;;;;;8.33;3.25;;;;;;;4.27;81.99;101999.20;1872416;76;21133;-61
2022/10/30 00:51:48;;;;;;;7.67;3.47;;;;;;;4.28;81.95;101998.32;1854222;75;21169;-60
2022/10/30 00:54:20;;;;;;;6.47;2.67;;;;;;;4.27;81.86;102000.50;1870515;77;21137;-60
2022/10/30 00:56:50;;;;;;;6.55;3.25;;;;;;;4.27;81.85;101992.68;1871646;77;21059;-58
2022/10/30 00:59:22;;;;;;;7.45;2.87;;;;;;;4.26;81.80;101993.12;1872627;77;21043;-59
2022/10/30 01:01:52;;;;;;;7.35;2.85;;;;;;;4.25;81.85;101988.31;1872765;76;21044;-59
2022/10/30 01:04:22;;;;;;;7.12;3.83;;;;;;;4.22;81.83;101993.53;1870600;76;21042;-61
2022/10/30 01:06:52;;;;;;;9.48;3.72;;;;;;;4.21;81.87;101991.77;1870453;77;21492;-59
2022/10/30 01:09:22;;;;;;;7.40;3.35;;;;;;;4.22;81.85;101990.92;1855985;76;21071;-59
2022/10/30 01:11:51;;;;;;;7.53;3.30;;;;;;;4.26;81.90;101991.81;1871649;76;21455;-59
2022/10/30 01:14:21;;;;;;;7.97;3.75;;;;;;;4.27;81.89;101990.94;1872410;77;21151;-59
2022/10/30 01:17:05;;;;;;;7.37;3.50;;;;;;;4.26;81.96;101981.39;1872405;77;21051;-59
2022/10/30 01:19:44;;;;;;;;;;;;;;;4.28;81.96;101981.38;1875451;76;21200;-61
2022/10/30 01:22:32;;;;;;;6.70;3.35;;;;;;;4.31;82.03;101982.70;1872278;76;20124;-59
2022/10/30 01:25:15;;;;;;;6.83;3.52;;;;;;;4.29;82.00;101979.22;1872396;77;21075;-62
2022/10/30 01:28:05;;;;;;;7.95;3.80;;;;;;;4.31;81.90;101976.19;1871657;75;21138;-61
2022/10/30 01:30:57;;;;;;;8.48;4.15;;;;;;;4.29;81.79;101968.34;1871847;76;21665;-62
2022/10/30 01:33:41;;;;;;;7.33;3.45;;;;;;;4.24;81.77;101974.85;1872618;76;21200;-61
2022/10/30 01:36:24;;;;;;;12.05;4.00;;;;;;;4.21;81.83;101979.17;1872409;77;21183;-62
2022/10/30 01:39:02;;;;;;;5.20;2.65;;;;;;;4.17;81.96;101974.77;1872558;77;21485;-59
2022/10/30 01:41:31;;;;;;;5.20;3.00;;;;;;;4.14;81.91;101976.94;1872423;77;21118;-60
2022/10/30 01:44:04;;;;;;;7.03;3.30;;;;;;;4.12;81.92;101976.50;1872693;77;21039;-59
2022/10/30 01:46:40;;;;;;;9.48;4.90;;;;;;;4.11;81.94;101972.99;1872480;77;21071;-61
2022/10/30 01:49:30;;;;;;;7.58;3.55;;;;;;;4.10;82.06;101969.97;1872492;76;21146;-60
2022/10/30 01:52:40;;;;;;;8.25;3.40;;;;;;;4.09;82.06;101976.02;1872450;77;21063;-60
2022/10/30 01:55:18;;;;;;;12.58;4.62;;;;;;;4.11;82.34;101983.42;1872462;77;21091;-60
2022/10/30 01:58:01;;;;;;;8.30;4.70;;;;;;;4.14;82.66;101979.55;1867040;77;21141;-60
2022/10/30 02:00:30;;;;;;;8.80;4.62;;;;;;;4.16;83.00;101975.21;1872762;77;21141;-59
2022/10/30 02:02:58;;;;;;;6.28;3.52;;;;;;;4.18;82.88;101969.58;1872683;77;21048;-61
2022/10/30 02:05:33;;;;;;;7.45;3.72;;;;;;;4.18;82.82;101968.27;1872504;77;21419;-60
2022/10/30 02:08:02;;;;;;;10.35;5.58;;;;;;;4.21;82.96;101972.21;1872563;76;21056;-60
2022/10/30 02:10:33;;;;;;;11.73;5.72;;;;;;;4.24;82.88;101972.25;1872486;77;21071;-60
2022/10/30 02:13:02;;;;;;;11.18;3.58;;;;;;;4.28;82.96;101970.53;1872505;77;21470;-59
2022/10/30 02:15:32;;;;;;;10.50;4.40;;;;;;;4.25;82.93;101973.97;1872584;77;21043;-61
2022/10/30 02:18:01;;;;;;;7.87;4.08;;;;;;;4.23;82.77;101971.79;1872487;77;21051;-59
2022/10/30 02:20:31;;;;;;;8.93;5.12;;;;;;;4.17;82.73;101969.16;1872584;77;21043;-59
2022/10/30 02:22:59;;;;;;;9.95;3.95;;;;;;;4.13;82.83;101973.91;1872613;77;21047;-59
2022/10/30 02:25:30;;;;;;;9.73;3.67;;;;;;;4.11;82.97;101974.30;1872585;76;21111;-61
2022/10/30 02:27:59;;;;;;;11.97;5.03;;;;;;;4.10;83.01;101970.41;1885567;75;21481;-58
2022/10/30 02:30:29;;;;;;;10.50;3.25;;;;;;;4.11;83.00;101970.39;1892745;76;21146;-59
2022/10/30 02:32:58;;;;;;;7.05;3.65;;;;;;;4.08;82.90;101970.80;1892807;76;21485;-60
2022/10/30 02:35:27;;;;;;;6.95;3.83;;;;;;;4.03;82.87;101966.42;1892890;76;21087;-59
2022/10/30 02:37:55;;;;;;;8.35;3.27;;;;;;;4.02;82.82;101966.41;1892745;76;21016;-56
2022/10/30 02:40:24;;;;;;;11.75;3.70;;;;;;;4.00;82.80;101968.13;1892756;76;21051;-55
2022/10/30 02:42:54;;;;;;;11.60;4.45;;;;;;;3.95;82.81;101958.99;1892632;76;21137;-58
2022/10/30 02:45:23;;;;;;;5.50;3.80;;;;;;;3.92;82.97;101958.09;1892780;76;21572;-59
2022/10/30 02:47:52;;;;;;;8.60;4.33;;;;;;;3.90;83.12;101956.77;1892774;76;21466;-59
2022/10/30 02:50:20;;;;;;;10.95;5.17;;;;;;;3.89;83.23;101954.15;1892724;76;21048;-58
2022/10/30 02:52:49;;;;;;;12.05;4.37;;;;;;;3.86;83.43;101950.66;1892755;76;21110;-58
2022/10/30 02:55:18;;;;;;;8.58;3.65;;;;;;;3.85;83.56;101956.75;1892626;75;21039;-59
2022/10/30 02:57:47;;;;;;;10.88;3.80;;;;;;;3.85;83.57;101954.14;1892880;75;21075;-59
2022/10/30 03:00:17;;;;;;;10.53;5.15;;;;;;;3.86;83.63;101947.19;1892753;76;21095;-59
2022/10/30 03:02:46;;;;;;;8.18;4.60;;;;;;;3.86;83.45;101945.45;1892824;75;21042;-59
2022/10/30 03:05:15;;;;;;;8.25;3.60;;;;;;;3.85;83.38;101947.63;1891197;75;21057;-58
2022/10/30 03:07:43;;;;;;;9.23;4.17;;;;;;;3.82;83.31;101952.81;1891234;76;21042;-57
2022/10/30 03:10:12;;;;;;;8.83;4.03;;;;;;;3.76;83.28;101939.74;1891154;76;21124;-58
2022/10/30 03:12:41;;;;;;;9.40;4.45;;;;;;;3.65;83.44;101945.27;1892616;76;21064;-57
2022/10/30 03:15:10;;;;;;;12.75;5.37;;;;;;;3.59;83.57;101943.48;1892780;76;21121;-58
2022/10/30 03:17:39;;;;;;;13.58;6.08;;;;;;;3.62;83.57;101941.34;1892885;76;21051;-56
2022/10/30 03:20:09;;;;;;;8.60;4.87;;;;;;;3.60;83.80;101932.66;1892716;76;21075;-57
2022/10/30 03:22:39;;;;;;;7.53;3.90;;;;;;;3.57;83.90;101929.57;1892671;76;21046;-58
2022/10/30 03:25:08;;;;;;;7.30;3.37;;;;;;;3.59;83.85;101923.08;1906937;74;21524;-56
2022/10/30 03:27:37;;;;;;;8.20;4.78;;;;;;;3.57;83.81;101925.66;1925955;74;21042;-57
2022/10/30 03:30:07;;;;;;;5.75;3.10;;;;;;;3.50;83.91;101914.74;1925901;74;21014;-52
2022/10/30 03:32:36;;;;;;;6.87;3.22;;;;;;;3.47;83.93;101915.60;1925963;74;21058;-57
2022/10/30 03:35:06;;;;;;;6.42;3.58;;;;;;;3.41;83.90;101894.73;1926003;74;21030;-57
2022/10/30 03:37:34;;;;;;;10.05;4.15;;;;;;;3.39;83.81;101888.60;1925964;74;21038;-57
2022/10/30 03:40:04;;;;;;;16.93;4.22;;;;;;;3.36;83.78;101878.63;1926023;74;21062;-56
2022/10/30 03:42:34;;;;;;;9.70;3.77;;;;;;;3.34;84.05;101869.89;1925929;74;21030;-55
2022/10/30 03:45:03;;;;;;;10.55;4.35;;;;;;;3.36;84.06;101875.58;1914000;74;21063;-57
2022/10/30 03:47:32;;;;;;;13.25;5.15;;;;;;;3.40;83.86;101872.14;1891893;76;21557;-56
2022/10/30 03:50:00;;;;;;;30.25;18.95;;;;;;;3.44;83.73;101876.50;1892564;76;21036;-54
2022/10/30 03:52:29;;;;;;;32.55;15.08;;;;;;;3.52;83.61;101883.52;1892750;76;21134;-58
2022/10/30 03:54:58;;;;;;;20.32;10.68;;;;;;;3.57;83.50;101877.92;1892945;76;21133;-59
2022/10/30 03:57:27;;;;;;;21.42;10.85;;;;;;;3.60;83.37;101874.05;1904103;74;21093;-59
2022/10/30 04:00:05;;;;;;;29.18;14.98;;;;;;;3.62;83.24;101883.61;1924250;74;22412;-59
2022/10/30 04:02:48;;;;;;;34.05;15.10;;;;;;;3.64;83.19;101883.63;1902392;74;21126;-59
2022/10/30 04:05:19;;;;;;;12.35;6.62;;;;;;;3.66;83.22;101889.72;1890430;76;21066;-59
2022/10/30 04:07:48;;;;;;;12.37;5.50;;;;;;;3.68;83.10;101893.20;1891259;76;21094;-57
2022/10/30 04:10:17;;;;;;;14.18;6.83;;;;;;;3.72;83.07;101891.05;1891100;74;21152;-60
2022/10/30 04:12:45;;;;;;;10.70;4.55;;;;;;;3.74;83.28;101893.23;1892622;76;21035;-50
2022/10/30 04:15:14;;;;;;;17.80;8.28;;;;;;;3.79;83.26;101891.55;1891437;76;21054;-56
2022/10/30 04:17:51;;;;;;;23.75;11.93;;;;;;;3.82;83.91;101881.59;1891170;76;21065;-55
2022/10/30 04:20:21;;;;;;;16.50;7.55;;;;;;;3.88;84.07;101882.94;1891248;76;21500;-57
2022/10/30 04:22:51;;;;;;;17.92;8.08;;;;;;;3.93;84.20;101877.73;1891012;76;21038;-58
2022/10/30 04:25:20;;;;;;;14.00;6.10;;;;;;;3.99;84.13;101883.02;1890939;75;21062;-58
2022/10/30 04:27:55;;;;;;;16.95;7.17;;;;;;;4.04;84.09;101876.10;1891113;76;21570;-55
2022/10/30 04:30:23;;;;;;;20.25;6.83;;;;;;;4.49;84.30;101871.97;1891080;75;21085;-54
2022/10/30 04:32:55;;;;;;;19.82;7.08;;;;;;;4.78;84.05;101860.78;1891208;76;21018;-58
2022/10/30 04:35:27;;;;;;;12.65;4.75;;;;;;;4.87;83.78;101858.20;1891020;76;21548;-57
2022/10/30 04:38:00;;;;;;;18.98;5.05;;;;;;;4.89;83.54;101861.68;1891281;75;21038;-58
2022/10/30 04:40:32;;;;;;;9.93;3.37;;;;;;;4.82;83.43;101848.17;1891237;75;21042;-57
2022/10/30 04:43:03;;;;;;;8.45;2.90;;;;;;;4.78;83.37;101832.08;1891220;75;21081;-57
2022/10/30 04:45:32;;;;;;;6.00;2.35;;;;;;;4.76;83.43;101832.52;1892038;76;21479;-57
2022/10/30 04:48:10;;;;;;;7.05;2.98;;;;;;;4.84;83.49;101838.61;1892633;75;21569;-57
2022/10/30 04:50:39;;;;;;;6.87;2.83;;;;;;;4.95;83.31;101822.53;1892761;75;21083;-57
2022/10/30 04:53:13;;;;;;;4.95;2.90;;;;;;;5.12;83.06;101828.21;1892710;74;21545;-57
2022/10/30 04:55:43;;;;;;;7.42;4.00;;;;;;;5.26;82.79;101829.09;1905433;74;20990;-58
2022/10/30 04:58:15;;;;;;;12.00;4.05;;;;;;;5.42;82.53;101837.78;1907710;74;21117;-59
2022/10/30 05:00:46;;;;;;;10.40;4.10;;;;;;;5.59;82.40;101833.89;1903544;74;21066;-58
2022/10/30 05:03:18;;;;;;;12.80;4.87;;;;;;;5.77;82.21;101839.50;1892655;75;21575;-57
2022/10/30 05:05:49;;;;;;;12.47;6.30;;;;;;;5.93;82.04;101832.07;1891033;76;21548;-61
2022/10/30 05:08:18;;;;;;;14.03;7.47;;;;;;;6.10;81.89;101834.66;1897523;74;21187;-60
2022/10/30 05:10:47;;;;;;;14.05;9.48;;;;;;;6.34;81.44;101823.69;1902137;74;21031;-60
2022/10/30 05:13:16;;;;;;;18.12;10.03;;;;;;;6.64;81.19;101825.73;1903374;74;21045;-62
2022/10/30 05:15:45;;;;;;;19.40;10.88;;;;;;;6.87;80.86;101825.16;1903362;74;21022;-61
2022/10/30 05:18:14;;;;;;;15.32;10.45;;;;;;;6.98;80.70;101834.27;1903414;74;21192;-61
2022/10/30 05:20:43;;;;;;;73.57;23.98;;;;;;;7.09;80.51;101836.81;1904615;74;21188;-60
2022/10/30 05:23:13;;;;;;;22.87;12.03;;;;;;;7.21;80.37;101839.36;1890998;74;21077;-61
2022/10/30 05:25:42;;;;;;;18.40;8.45;;;;;;;7.35;80.31;101838.78;1885686;76;21657;-60
2022/10/30 05:28:12;;;;;;;12.33;6.83;;;;;;;7.50;80.11;101832.98;1885989;76;21049;-61
2022/10/30 05:30:50;;;;;;;13.55;5.85;;;;;;;7.62;79.94;101830.27;1900900;75;21100;-60
2022/10/30 05:33:20;;;;;;;13.78;6.05;;;;;;;7.89;79.60;101825.63;1899461;75;21123;-60
2022/10/30 05:35:50;;;;;;;13.13;6.50;;;;;;;8.41;79.29;101824.14;1902150;75;20993;-60
2022/10/30 05:38:19;;;;;;;11.28;5.50;;;;;;;9.25;79.15;101820.80;1902214;75;21071;-60
2022/10/30 05:40:48;;;;;;;13.22;5.10;;;;;;;10.24;79.24;101817.24;1839766;78;21077;-60
2022/10/30 05:43:17;;;;;;;9.15;4.42;;;;;;;11.14;79.04;101809.12;1839597;78;21589;-60
2022/10/30 05:45:50;;;;;;;10.48;4.75;;;;;;;11.90;78.65;101806.75;1839725;78;21527;-61
2022/10/30 05:48:19;;;;;;;9.80;4.80;;;;;;;12.34;77.97;101801.97;1870004;77;21098;-60
2022/10/30 05:50:48;;;;;;;10.75;4.05;;;;;;;12.88;77.36;101802.11;1870175;77;21094;-60
2022/10/30 05:53:18;;;;;;;10.68;4.92;;;;;;;13.74;76.40;101807.65;1869831;77;21192;-60
2022/10/30 05:55:47;;;;;;;7.33;3.50;;;;;;;14.42;75.11;101807.36;1904155;74;21122;-60
2022/10/30 05:58:18;;;;;;;6.97;4.37;;;;;;;15.25;74.03;101789.50;1916018;74;21028;-59
2022/10/30 06:00:47;;;;;;;9.55;4.08;;;;;;;15.79;72.55;101784.11;1904274;74;21547;-60
2022/10/30 06:03:17;;;;;;;17.85;5.20;;;;;;;16.28;71.28;101782.34;1848839;77;21154;-60
2022/10/30 06:05:47;;;;;;;7.70;3.62;;;;;;;16.88;70.10;101772.03;1910168;74;21030;-60
2022/10/30 06:08:16;;;;;;;13.22;4.90;;;;;;;17.29;68.92;101765.95;1913407;74;21093;-60
2022/10/30 06:10:46;;;;;;;7.60;4.12;;;;;;;17.75;68.03;101765.37;1888334;75;21180;-60
2022/10/30 06:13:19;;;;;;;11.30;4.08;;;;;;;18.41;66.83;101760.48;1853054;77;21275;-59
2022/10/30 06:15:50;;;;;;;7.20;3.55;;;;;;;18.96;65.79;101752.96;1846790;76;21176;-60
2022/10/30 06:18:20;;;;;;;6.95;3.05;;;;;;;19.54;64.65;101750.84;1857225;77;21210;-60
2022/10/30 06:20:50;;;;;;;4.03;2.33;;;;;;;19.93;63.11;101751.18;1834891;77;21140;-56
2022/10/30 06:23:20;;;;;;;3.45;1.85;;;;;;;20.53;62.20;101736.19;1883940;75;21036;-56
2022/10/30 06:25:51;;;;;;;4.17;1.27;;;;;;;20.39;56.92;101733.55;1885626;75;21247;-59
2022/10/30 06:28:21;;;;;;;3.00;1.27;;;;;;;19.68;51.50;101740.17;1871721;76;21198;-58
2022/10/30 06:30:50;;;;;;;1.35;0.85;;;;;;;19.55;51.99;101727.19;1871181;77;21055;-59
2022/10/30 06:33:19;;;;;;;4.35;1.37;;;;;;;19.61;52.06;101730.81;1916064;74;21226;-59
2022/10/30 06:35:50;;;;;;;13.78;1.42;;;;;;;19.42;50.03;101719.52;1913209;74;21298;-59
2022/10/30 06:38:20;;;;;;;2.65;1.20;;;;;;;19.19;49.32;101724.45;1847605;77;21103;-57
2022/10/30 06:40:50;;;;;;;2.15;1.00;;;;;;;19.26;48.77;101723.12;1854087;77;21032;-58
2022/10/30 06:43:26;;;;;;;5.90;1.27;;;;;;;19.45;49.18;101712.18;1846716;77;21455;-59
2022/10/30 06:45:59;;;;;;;;;;;;;;;19.41;47.86;101725.83;1852017;77;21067;-55
2022/10/30 06:48:28;;;;;;;3.33;0.98;;;;;;;19.55;46.92;101713.84;1853016;77;20128;-58
2022/10/30 06:50:59;;;;;;;2.20;0.90;;;;;;;19.41;46.77;101707.14;1871096;77;21028;-59
2022/10/30 06:53:30;;;;;;;1.57;0.93;;;;;;;19.60;46.40;101689.01;1869001;77;21213;-59
2022/10/30 06:56:04;;;;;;;1.95;0.80;;;;;;;19.53;45.94;101697.05;1853119;77;21118;-60
2022/10/30 06:58:41;;;;;;;2.42;1.05;;;;;;;19.68;46.13;101693.91;1846724;77;21080;-60
2022/10/30 07:01:11;;;;;;;3.33;1.20;;;;;;;20.14;44.77;101667.41;1915183;74;21092;-60
2022/10/30 07:03:57;;;;;;;2.47;0.68;;;;;;;19.93;44.09;101679.86;1867040;77;21113;-59
2022/10/30 07:06:26;;;;;;;1.27;1.10;;;;;;;19.88;43.62;101659.25;1869050;77;21128;-60
2022/10/30 07:08:55;;;;;;;1.80;1.00;;;;;;;19.71;43.55;101672.80;1868264;77;21028;-60
2022/10/30 07:11:24;;;;;;;4.50;0.98;;;;;;;19.87;43.86;101642.84;1869988;77;21083;-60
2022/10/30 07:14:00;;;;;;;1.47;0.90;;;;;;;20.01;43.01;101658.86;1861923;77;21159;-58
2022/10/30 07:16:37;;;;;;;1.37;0.75;;;;;;;20.18;42.13;101646.22;1870067;75;21597;-57
2022/10/30 07:19:06;;;;;;;3.98;1.10;;;;;;;20.30;42.04;101641.39;1868262;77;21048;-57
2022/10/30 07:21:35;;;;;;;2.98;0.55;;;;;;;20.00;43.04;101653.61;1869961;77;21054;-57
2022/10/30 07:24:06;;;;;;;0.90;0.70;;;;;;;19.79;43.66;101644.68;1863052;76;21195;-58
2022/10/30 07:26:37;;;;;;;2.65;0.82;;;;;;;19.78;43.60;101642.09;1868212;75;21051;-57
2022/10/30 07:29:07;;;;;;;1.30;0.90;;;;;;;19.27;43.51;101642.55;1870163;75;21068;-57
2022/10/30 07:31:48;;;;;;;1.15;0.90;;;;;;;18.76;44.51;101678.92;1856107;76;21057;-57
2022/10/30 07:34:19;;;;;;;3.00;1.00;;;;;;;18.62;45.31;101666.38;1832820;76;21144;-57
2022/10/30 07:36:51;;;;;;;;;;;;;;;18.70;45.22;101664.14;1844106;77;21156;-57
2022/10/30 07:39:28;;;;;;;1.30;0.98;;;;;;;19.14;44.50;101661.61;1882863;76;20126;-57
2022/10/30 07:42:04;;;;;;;3.30;0.88;;;;;;;19.78;43.66;101644.77;1885915;76;21492;-57
2022/10/30 07:44:50;;;;;;;1.10;0.62;;;;;;;18.72;45.30;101670.72;1918952;74;21147;-57
2022/10/30 07:47:22;;;;;;;;;;;;;;;19.93;44.39;101665.16;1865711;76;21667;-57
2022/10/30 07:49:53;;;;;;;3.12;0.88;;;;;;;20.97;42.81;101656.58;1886247;76;20154;-57
2022/10/30 07:52:22;;;;;;;1.02;0.80;;;;;;;21.40;41.58;101633.03;1886376;76;21038;-57
2022/10/30 07:54:52;;;;;;;1.55;0.80;;;;;;;21.71;40.42;101633.56;1886183;76;21061;-60
2022/10/30 07:57:36;;;;;;;2.35;0.70;;;;;;;21.97;40.26;101642.39;1918692;74;21140;-60
2022/10/30 08:00:23;;;;;;;2.50;0.90;;;;;;;21.86;39.25;101661.08;1886286;76;21595;-60
2022/10/30 08:02:58;;;;;;;2.42;0.90;;;;;;;21.56;39.95;101640.88;1886065;76;21038;-58
2022/10/30 08:05:35;;;;;;;2.17;1.02;;;;;;;22.25;39.31;101626.94;1902644;74;21038;-58
2022/10/30 08:08:11;;;;;;;2.90;1.10;;;;;;;21.80;39.12;101594.52;1886360;74;21137;-58
2022/10/30 08:10:39;;;;;;;5.05;0.80;;;;;;;21.87;39.28;101615.86;1886246;76;21103;-58
2022/10/30 08:13:09;;;;;;;1.55;0.78;;;;;;;22.06;39.47;101597.08;1886300;76;21074;-57
2022/10/30 08:15:38;;;;;;;6.37;1.10;;;;;;;21.75;40.06;101606.05;1886187;76;21054;-58
2022/10/30 08:18:07;;;;;;;1.50;0.75;;;;;;;20.52;41.81;101610.55;1886146;76;21130;-57
2022/10/30 08:20:37;;;;;;;1.40;0.85;;;;;;;19.67;43.25;101575.46;1886074;76;21383;-61
2022/10/30 08:23:06;;;;;;;1.87;0.98;;;;;;;19.08;44.47;101586.77;1886124;76;21088;-62
2022/10/30 08:25:35;;;;;;;2.95;0.75;;;;;;;18.89;45.33;101599.89;1886392;76;21009;-58
2022/10/30 08:28:07;;;;;;;1.70;1.47;;;;;;;18.64;45.27;101592.46;1886148;76;21010;-59
2022/10/30 08:30:38;;;;;;;1.32;0.98;;;;;;;18.77;45.61;101599.25;1886475;75;21487;-59
2022/10/30 08:33:13;;;;;;;2.22;1.10;;;;;;;18.43;45.76;101601.27;1895732;76;21108;-57
2022/10/30 08:36:01;;;;;;;2.87;1.25;;;;;;;18.01;46.96;101606.78;1925933;74;21087;-57
2022/10/30 08:38:32;;;;;;;2.90;1.40;;;;;;;17.59;48.47;101594.02;1925886;74;21113;-57
2022/10/30 08:41:02;;;;;;;1.95;1.32;;;;;;;17.40;49.55;101599.02;1914223;74;21511;-59
2022/10/30 08:43:32;;;;;;;2.98;1.42;;;;;;;17.43;50.22;101603.30;1895223;74;21100;-58
2022/10/30 08:46:01;;;;;;;2.52;1.12;;;;;;;18.14;49.21;101579.80;1895852;76;21179;-58
2022/10/30 08:48:31;;;;;;;2.67;1.05;;;;;;;19.05;47.70;101582.94;1881666;76;21587;-58
2022/10/30 08:51:00;;;;;;;1.50;1.05;;;;;;;19.00;47.66;101590.39;1876724;76;21121;-59
2022/10/30 08:53:31;;;;;;;2.90;1.07;;;;;;;18.75;48.13;101555.80;1879610;76;21533;-59
2022/10/30 08:56:00;;;;;;;2.55;1.10;;;;;;;18.49;48.84;101604.05;1877074;76;21045;-58
2022/10/30 08:58:31;;;;;;;2.52;1.25;;;;;;;18.18;49.68;101592.97;1879452;76;21504;-57
2022/10/30 09:01:00;;;;;;;1.47;0.95;;;;;;;18.04;49.98;101574.64;1877000;76;21579;-56
2022/10/30 09:03:47;;;;;;;5.25;1.30;;;;;;;18.42;49.41;101593.34;1877533;76;21156;-58
2022/10/30 09:06:17;;;;;;;3.25;1.20;;;;;;;19.14;47.94;101583.70;1874252;76;21045;-59
2022/10/30 09:09:05;;;;;;;1.87;1.30;;;;;;;19.26;47.26;101580.28;1877638;76;21034;-58
2022/10/30 09:11:46;;;;;;;2.27;1.10;;;;;;;18.74;47.98;101586.13;1874849;76;21033;-58
2022/10/30 09:14:16;;;;;;;1.62;1.10;;;;;;;18.59;48.41;101573.23;1878074;76;21538;-57
2022/10/30 09:16:45;;;;;;;2.08;1.25;;;;;;;18.24;49.23;101581.49;1876913;76;21041;-58
2022/10/30 09:19:15;;;;;;;2.52;1.20;;;;;;;18.51;48.89;101601.66;1879407;76;21528;-59
2022/10/30 09:21:44;;;;;;;1.25;0.95;;;;;;;18.64;48.73;101581.79;1879306;76;21061;-62
2022/10/30 09:24:12;;;;;;;1.87;1.47;;;;;;;19.54;46.86;101577.21;1878882;76;21030;-61
2022/10/30 09:26:43;;;;;;;2.02;1.47;;;;;;;19.67;46.29;101560.77;1875904;76;21117;-63
2022/10/30 09:29:13;;;;;;;4.40;1.12;;;;;;;19.09;47.42;101584.49;1876501;76;21053;-58
2022/10/30 09:31:43;;;;;;;1.85;1.35;;;;;;;18.99;47.93;101583.32;1874931;76;21076;-56
2022/10/30 09:34:13;;;;;;;2.70;1.02;;;;;;;19.45;46.95;101570.62;1863063;76;21136;-57
2022/10/30 09:36:45;;;;;;;1.75;0.90;;;;;;;19.72;46.49;101579.67;1863466;76;21470;-60
2022/10/30 09:39:14;;;;;;;2.17;1.05;;;;;;;19.50;46.79;101565.50;1863267;76;21011;-63
2022/10/30 09:42:09;;;;;;;4.67;1.42;;;;;;;19.00;47.36;101578.38;1862635;76;21042;-58
2022/10/30 09:44:51;;;;;;;2.40;1.35;;;;;;;18.44;48.25;101571.00;1864496;76;21125;-58
2022/10/30 09:47:32;;;;;;;5.15;1.42;;;;;;;17.92;49.58;101559.34;1865796;76;21460;-58
2022/10/30 09:50:03;;;;;;;2.27;1.30;;;;;;;17.93;50.08;101573.06;1866131;76;21497;-58
2022/10/30 09:52:40;;;;;;;;;;;;;;;18.08;49.64;101585.98;1860135;76;21214;-58
2022/10/30 09:55:38;;;;;;;1.95;1.22;;;;;;;17.85;50.06;101536.66;1864633;76;20169;-58
2022/10/30 09:58:42;;;;;;;2.35;1.30;;;;;;;17.72;50.53;101571.97;1864521;76;21037;-58
2022/10/30 10:01:17;;;;;;;3.62;1.32;;;;;;;17.64;50.58;101583.50;1864614;76;21135;-58
2022/10/30 10:04:05;;;;;;;2.25;1.12;;;;;;;17.58;50.57;101572.31;1861390;76;21656;-59
2022/10/30 10:06:50;;;;;;;2.72;1.25;;;;;;;17.55;50.75;101566.70;1866467;76;21450;-58
2022/10/30 10:09:29;;;;;;;1.62;1.10;;;;;;;17.44;50.77;101549.13;1862352;76;21812;-60
2022/10/30 10:12:11;;;;;;;1.30;1.00;;;;;;;17.32;51.21;101555.52;1866199;75;21118;-59
2022/10/30 10:14:43;;;;;;;1.62;1.20;;;;;;;17.33;51.35;101561.21;1864425;76;21060;-58
2022/10/30 10:17:15;;;;;;;2.25;1.30;;;;;;;17.42;51.21;101558.53;1865152;75;21506;-60
2022/10/30 10:19:58;;;;;;;2.67;1.10;;;;;;;17.27;51.61;101554.90;1866217;76;21106;-60
2022/10/30 10:22:28;;;;;;;;;;;;;;;17.08;52.13;101560.36;1870257;76;21245;-61
2022/10/30 10:24:56;;;;;;;;;;;;;;;16.86;52.45;101561.97;1868835;76;20117;-60
2022/10/30 10:27:31;;;;;;;;;;;;;;;16.73;53.02;101564.84;1868762;76;20154;-60
2022/10/30 10:30:13;;;;;;;;;;;;;;;16.59;53.56;101570.38;1869255;76;20160;-58
2022/10/30 10:32:51;;;;;;;;;;;;;;;16.43;53.81;101567.26;1875379;75;20172;-55
2022/10/30 10:35:26;;;;;;;;;;;;;;;16.33;53.99;101557.56;1888347;75;20150;-55
2022/10/30 10:37:55;;;;;;;;;;;;;;;16.26;54.61;101562.80;1885430;75;20152;-57
2022/10/30 10:40:24;;;;;;;;;;;;;;;16.20;54.50;101540.90;1894002;75;20116;-60
2022/10/30 10:42:54;;;;;;;;;;;;;;;16.11;54.73;101577.22;1887823;75;20534;-58
2022/10/30 10:45:26;;;;;;;;;;;;;;;16.01;55.09;101550.73;1887560;75;20122;-56
2022/10/30 10:48:13;;;;;;;;;;;;;;;15.96;55.30;101551.42;1875223;77;20116;-56
2022/10/30 10:50:43;;;;;;;;;;;;;;;15.96;55.65;101559.39;1890187;75;20155;-56
2022/10/30 10:53:12;;;;;;;;;;;;;;;15.99;56.06;101555.23;1892404;75;20153;-55
2022/10/30 10:55:41;;;;;;;;;;;;;;;15.97;56.52;101541.17;1874923;76;20108;-58
2022/10/30 10:58:19;;;;;;;;;;;;;;;15.86;56.58;101546.15;1892873;75;20130;-60
2022/10/30 11:00:47;;;;;;;;;;;;;;;15.75;56.31;101538.25;1892555;75;20248;-62
2022/10/30 11:03:16;;;;;;;;;;;;;;;15.64;56.48;101532.56;1886274;75;20179;-61
2022/10/30 11:05:51;;;;;;;;;;;;;;;15.56;56.77;101534.70;1890161;75;20109;-60
2022/10/30 11:08:30;;;;;;;;;;;;;;;15.51;57.02;101524.77;1875055;77;20120;-61
2022/10/30 11:10:59;;;;;;;;;;;;;;;15.48;57.21;101528.91;1891710;75;20384;-61
2022/10/30 11:13:37;;;;;;;;;;;;;;;15.47;57.28;101528.50;1892482;75;20120;-61
2022/10/30 11:16:10;;;;;;;;;;;;;;;15.46;57.53;101509.55;1890431;75;20147;-61
2022/10/30 11:18:38;;;;;;;;;;;;;;;15.46;57.54;101526.33;1887198;75;20108;-61
2022/10/30 11:21:13;;;;;;;;;;;;;;;15.48;57.41;101508.53;1890108;75;20120;-59
2022/10/30 11:23:42;;;;;;;;;;;;;;;15.44;57.15;101487.91;1880688;75;20159;-59
2022/10/30 11:26:23;;;;;;;;;;;;;;;15.42;57.12;101476.98;1875017;77;20116;-60
2022/10/30 11:28:49;;;;;;;;;;;;;;;15.40;57.28;101520.84;1874549;76;20116;-59
2022/10/30 11:31:18;;;;;;;;;;;;;;;15.39;57.31;101524.41;1875060;77;20147;-60
2022/10/30 11:33:46;;;;;;;;;;;;;;;15.36;57.33;101514.41;1877870;75;20151;-60
2022/10/30 11:36:16;;;;;;;;;;;;;;;15.32;57.49;101505.73;1873418;77;20120;-60
2022/10/30 11:38:44;;;;;;;;;;;;;;;15.30;57.38;101503.61;1874279;76;20160;-60
2022/10/30 11:41:13;;;;;;;;;;;;;;;15.31;57.78;101519.06;1875232;77;20124;-60
2022/10/30 11:43:42;;;;;;;;;;;;;;;15.29;57.59;101510.31;1875174;77;20167;-60
2022/10/30 11:46:11;;;;;;;;;;;;;;;15.25;57.80;101520.20;1875200;77;20146;-60
2022/10/30 11:48:41;;;;;;;;;;;;;;;15.22;57.97;101517.24;1875254;77;20147;-60
2022/10/30 11:51:08;;;;;;;;;;;;;;;15.19;58.10;101516.05;1878817;76;20195;-61
2022/10/30 11:53:41;;;;;;;;;;;;;;;15.19;58.01;101489.99;1873381;77;20121;-58
2022/10/30 11:56:16;;;;;;;;;;;;;;;15.17;57.77;101493.19;1873365;76;20147;-59
2022/10/30 11:58:45;;;;;;;;;;;;;;;15.18;57.92;101508.15;1873409;76;20128;-58
2022/10/30 12:01:15;;;;;;;;;;;;;;;15.17;58.04;101503.32;1873230;76;20120;-61